Beaverlick, Kentucky
Current Conditions -  °F | °C
As of 4:52 AM on Saturday 22 Nov 2014 (Local Time) from KCVG Reporting Station
Light Rain Light Rain  
Wind Chill: 28°   Ceiling: 4600
Heat Index: 33°   Visibility: 10mi
Dew Point: 24°   Wind: 6mph
Humidity: 70%   Direction: 170°S
Pressure: 30.3"   Gusts: NA
Location:  38.8847°N, 84.6211°W
Report Text: KCVG 220952Z 17005KT 10SM -RA FEW032 OVC046 01/M04 A3030 RMK AO2 SLP266 P0000 T00061044
Loading
Personal Weather Stations






























Interactive Weather Map New forecast layout! Learn more

10-Day Weather Forecast

Advertisements
Track Severe Weather on mobile